createdAt,value
2023-04-19T00:02:20.874Z,9.30
2023-04-19T00:04:49.467Z,9.17
2023-04-19T00:07:18.639Z,9.57
2023-04-19T00:09:47.107Z,8.80
2023-04-19T00:12:15.659Z,9.07
2023-04-19T00:14:43.995Z,9.10
2023-04-19T00:17:12.684Z,8.60
2023-04-19T00:19:43.079Z,8.43
2023-04-19T00:22:11.921Z,9.33
2023-04-19T00:24:40.465Z,8.97
2023-04-19T00:27:08.868Z,8.77
2023-04-19T00:29:37.267Z,8.57
2023-04-19T00:32:06.049Z,9.10
2023-04-19T00:34:34.577Z,8.97
2023-04-19T00:37:05.402Z,9.43
2023-04-19T00:39:33.862Z,9.03
2023-04-19T00:42:02.257Z,9.33
2023-04-19T00:44:30.912Z,9.10
2023-04-19T00:46:59.363Z,8.77
2023-04-19T00:49:27.815Z,9.43
2023-04-19T00:51:56.307Z,9.30
2023-04-19T00:54:26.219Z,9.00
2023-04-19T00:56:54.566Z,8.97
2023-04-19T00:59:22.944Z,9.00
2023-04-19T01:01:51.477Z,9.17
2023-04-19T01:04:20.296Z,9.87
2023-04-19T01:06:49.249Z,9.40
2023-04-19T01:09:17.546Z,8.57
2023-04-19T01:11:47.240Z,9.60
2023-04-19T01:14:15.969Z,9.70
2023-04-19T01:16:45.533Z,9.00
2023-04-19T01:19:14.080Z,10.10
2023-04-19T01:21:43.902Z,10.67
2023-04-19T01:24:13.974Z,10.67
2023-04-19T01:26:42.560Z,10.37
2023-04-19T01:29:11.013Z,10.80
2023-04-19T01:31:39.528Z,10.20
2023-04-19T01:34:08.063Z,9.57
2023-04-19T01:36:36.389Z,10.37
2023-04-19T01:39:05.027Z,9.83
2023-04-19T01:41:34.731Z,10.13
2023-04-19T01:44:03.313Z,10.50
2023-04-19T01:46:35.274Z,10.53
2023-04-19T01:49:03.897Z,10.37
2023-04-19T01:51:32.332Z,10.50
2023-04-19T01:54:01.732Z,9.53
2023-04-19T01:56:30.395Z,10.00
2023-04-19T01:59:00.325Z,10.80
2023-04-19T02:01:28.908Z,9.87
2023-04-19T02:03:57.408Z,10.30
2023-04-19T02:06:26.955Z,10.10
2023-04-19T02:08:55.556Z,10.30
2023-04-19T02:11:23.889Z,10.50
2023-04-19T02:13:52.329Z,10.23
2023-04-19T02:16:22.120Z,10.90
2023-04-19T02:18:50.738Z,10.97
2023-04-19T02:21:19.226Z,11.20
2023-04-19T02:23:47.719Z,11.00
2023-04-19T02:26:16.189Z,10.70
2023-04-19T02:28:44.777Z,11.33
2023-04-19T02:31:13.158Z,9.90
2023-04-19T02:33:42.949Z,10.43
2023-04-19T02:36:12.182Z,10.70
2023-04-19T02:38:40.843Z,10.80
2023-04-19T02:41:09.264Z,11.40
2023-04-19T02:43:37.808Z,11.17
2023-04-19T02:46:06.505Z,11.77
2023-04-19T02:48:34.987Z,11.70
2023-04-19T02:51:04.740Z,11.47
2023-04-19T02:53:33.675Z,11.80
2023-04-19T02:56:02.300Z,11.07
2023-04-19T02:58:30.693Z,11.17
2023-04-19T03:00:59.072Z,12.03
2023-04-19T03:03:27.595Z,11.97
2023-04-19T03:05:56.095Z,12.03
2023-04-19T03:08:25.880Z,11.80
2023-04-19T03:10:54.302Z,11.77
2023-04-19T03:13:22.833Z,12.47
2023-04-19T03:15:51.220Z,11.70
2023-04-19T03:18:19.659Z,11.90
2023-04-19T03:20:48.022Z,11.87
2023-04-19T03:23:16.593Z,11.13
2023-04-19T03:25:46.372Z,11.77
2023-04-19T03:28:14.903Z,11.07
2023-04-19T03:30:43.448Z,11.13
2023-04-19T03:33:11.839Z,11.70
2023-04-19T03:35:40.340Z,11.70
2023-04-19T03:38:08.661Z,11.63
2023-04-19T03:40:38.608Z,11.43
2023-04-19T03:43:08.358Z,11.20
2023-04-19T03:45:36.808Z,11.30
2023-04-19T03:48:05.451Z,11.63
2023-04-19T03:50:33.895Z,11.57
2023-04-19T03:53:02.260Z,11.33
2023-04-19T03:55:30.705Z,12.33
2023-04-19T03:57:59.157Z,12.80
2023-04-19T04:00:29.079Z,12.07
2023-04-19T04:02:57.613Z,11.17
2023-04-19T04:05:26.216Z,12.23
2023-04-19T04:07:54.651Z,12.37
2023-04-19T04:10:22.948Z,11.93
2023-04-19T04:12:51.434Z,11.43
2023-04-19T04:15:19.822Z,11.97
2023-04-19T04:17:49.690Z,12.07
2023-04-19T04:20:18.222Z,11.90
2023-04-19T04:22:47.476Z,11.20
2023-04-19T04:25:16.866Z,11.93
2023-04-19T04:27:45.642Z,11.40
2023-04-19T04:30:14.254Z,12.27
2023-04-19T04:32:43.354Z,12.00
2023-04-19T04:35:13.255Z,11.40
2023-04-19T04:37:41.737Z,12.27
2023-04-19T04:40:10.875Z,11.53
2023-04-19T04:42:39.307Z,11.97
2023-04-19T04:45:08.160Z,10.50
2023-04-19T04:47:36.540Z,11.57
2023-04-19T04:50:05.239Z,11.70
2023-04-19T04:52:34.969Z,12.13
2023-04-19T04:55:03.436Z,10.53
2023-04-19T04:57:31.802Z,11.23
2023-04-19T05:00:00.197Z,10.70
2023-04-19T05:02:28.641Z,10.50
2023-04-19T05:04:57.042Z,11.00
2023-04-19T05:07:25.643Z,11.23
2023-04-19T05:09:55.478Z,10.00
2023-04-19T05:12:24.013Z,10.73
2023-04-19T05:14:53.365Z,10.97
2023-04-19T05:17:21.800Z,10.70
2023-04-19T05:19:51.130Z,11.13
2023-04-19T05:22:19.721Z,11.03
2023-04-19T05:24:50.143Z,10.53
2023-04-19T05:27:20.016Z,10.67
2023-04-19T05:29:48.390Z,10.20
2023-04-19T05:32:16.924Z,9.90
2023-04-19T05:34:45.424Z,10.33
2023-04-19T05:37:13.840Z,10.43
2023-04-19T05:39:44.219Z,10.00
2023-04-19T05:42:13.123Z,10.10
2023-04-19T05:44:42.851Z,10.30
2023-04-19T05:47:11.558Z,9.90
2023-04-19T05:49:41.398Z,10.33
2023-04-19T05:52:11.339Z,10.27
2023-04-19T05:54:39.863Z,10.40
2023-04-19T05:57:08.352Z,9.73
2023-04-19T05:59:36.840Z,10.20
2023-04-19T06:02:06.909Z,10.07
2023-04-19T06:04:36.325Z,9.47
2023-04-19T06:07:08.126Z,10.27
2023-04-19T06:09:42.038Z,9.67
2023-04-19T06:12:10.470Z,9.73
2023-04-19T06:14:39.895Z,9.53
2023-04-19T06:17:09.804Z,9.43
2023-04-19T06:19:38.287Z,9.30
2023-04-19T06:22:06.653Z,10.20
2023-04-19T06:24:35.485Z,9.77
2023-04-19T06:27:03.865Z,9.13
2023-04-19T06:29:32.416Z,9.80
2023-04-19T06:32:00.813Z,9.53
2023-04-19T06:34:30.620Z,9.67
2023-04-19T06:36:58.940Z,9.20
2023-04-19T06:39:27.502Z,9.13
2023-04-19T06:41:55.965Z,8.57
2023-04-19T06:44:24.491Z,9.37
2023-04-19T06:46:53.077Z,9.00
2023-04-19T06:49:22.823Z,9.03
2023-04-19T06:51:53.426Z,9.40
2023-04-19T06:54:22.217Z,9.83
2023-04-19T06:56:51.519Z,8.20
2023-04-19T06:59:20.471Z,8.77
2023-04-19T07:01:49.072Z,9.07
2023-04-19T07:04:18.237Z,9.07
2023-04-19T07:06:49.898Z,8.63
2023-04-19T07:09:19.666Z,8.77
2023-04-19T07:11:48.455Z,9.07
2023-04-19T07:14:17.125Z,8.83
2023-04-19T07:16:45.905Z,8.17
2023-04-19T07:19:14.448Z,8.00
2023-04-19T07:21:42.742Z,8.60
2023-04-19T07:24:11.189Z,9.27
2023-04-19T07:26:40.933Z,8.47
2023-04-19T07:29:09.564Z,8.03
2023-04-19T07:31:38.241Z,8.10
2023-04-19T07:34:06.860Z,8.27
2023-04-19T07:36:37.021Z,7.47
2023-04-19T07:39:05.871Z,7.77
2023-04-19T07:41:35.927Z,8.03
2023-04-19T07:44:06.076Z,7.87
2023-04-19T07:46:34.489Z,7.57
2023-04-19T07:49:02.974Z,7.50
2023-04-19T07:51:31.631Z,7.57
2023-04-19T07:54:00.064Z,8.40
2023-04-19T07:56:28.655Z,7.50
2023-04-19T07:59:07.573Z,7.27
2023-04-19T08:01:38.794Z,7.70
2023-04-19T08:04:08.123Z,7.73
2023-04-19T08:06:39.781Z,7.37
2023-04-19T08:09:08.405Z,7.40
2023-04-19T08:11:36.769Z,7.50
2023-04-19T08:14:15.248Z,6.70
2023-04-19T08:19:26.246Z,7.20
2023-04-19T08:21:54.809Z,6.80
2023-04-19T08:24:23.216Z,6.50
2023-04-19T08:26:54.776Z,6.10
2023-04-19T08:29:23.204Z,6.70
2023-04-19T08:31:51.742Z,6.20
2023-04-19T08:34:21.477Z,5.73
2023-04-19T08:37:00.185Z,5.90
2023-04-19T08:39:33.497Z,6.40
2023-04-19T08:42:07.378Z,6.17
2023-04-19T08:44:48.988Z,6.40
2023-04-19T08:47:32.209Z,6.23
2023-04-19T08:52:39.262Z,6.30
2023-04-19T08:55:10.669Z,6.33
2023-04-19T08:57:39.015Z,6.03
2023-04-19T09:00:11.499Z,6.20
2023-04-19T09:02:49.397Z,5.77
2023-04-19T09:05:19.753Z,5.40
2023-04-19T09:07:48.581Z,5.80
2023-04-19T09:10:17.217Z,5.97
2023-04-19T09:12:45.695Z,5.50
2023-04-19T09:15:14.124Z,5.63
2023-04-19T09:17:42.795Z,5.00
2023-04-19T09:20:11.430Z,4.83
2023-04-19T09:22:41.480Z,4.77
2023-04-19T09:25:39.111Z,4.37
2023-04-19T09:28:19.253Z,4.10
2023-04-19T09:31:00.677Z,4.27
2023-04-19T09:33:35.604Z,3.73
2023-04-19T09:36:04.046Z,4.20
2023-04-19T09:38:34.030Z,4.20
2023-04-19T09:41:09.645Z,4.10
2023-04-19T09:43:58.760Z,4.67
2023-04-19T09:46:33.142Z,4.10
2023-04-19T09:49:27.908Z,4.63
2023-04-19T09:52:05.829Z,4.27
2023-04-19T09:54:35.673Z,3.83
2023-04-19T09:57:04.197Z,4.00
2023-04-19T09:59:32.795Z,3.90
2023-04-19T10:02:01.388Z,3.70
2023-04-19T10:04:50.072Z,4.17
2023-04-19T10:07:30.118Z,3.63
2023-04-19T10:12:52.264Z,3.30
2023-04-19T10:15:21.508Z,3.60
2023-04-19T10:17:50.034Z,3.83
2023-04-19T10:20:22.994Z,3.53
2023-04-19T10:22:51.502Z,3.60
2023-04-19T10:25:21.606Z,3.30
2023-04-19T10:27:51.626Z,3.33
2023-04-19T10:30:20.688Z,3.10
2023-04-19T10:32:53.423Z,3.00
2023-04-19T10:35:22.203Z,2.97
2023-04-19T10:38:07.010Z,3.30
2023-04-19T10:40:55.130Z,3.10
2023-04-19T10:43:29.101Z,2.90
2023-04-19T10:45:57.858Z,2.70
2023-04-19T10:48:53.646Z,2.67
2023-04-19T10:51:22.903Z,2.70
2023-04-19T10:53:52.363Z,2.87
2023-04-19T10:56:21.124Z,2.60
2023-04-19T10:59:10.427Z,2.00
2023-04-19T11:01:43.678Z,2.20
2023-04-19T11:04:12.776Z,2.00
2023-04-19T11:06:57.467Z,2.50
2023-04-19T11:09:25.927Z,2.30
2023-04-19T11:11:54.714Z,2.03
2023-04-19T11:14:23.371Z,2.30
2023-04-19T11:16:53.351Z,2.23
2023-04-19T11:19:21.854Z,1.87
2023-04-19T11:21:50.471Z,2.10
2023-04-19T11:24:20.824Z,1.97
2023-04-19T11:26:49.384Z,2.17
2023-04-19T11:29:18.150Z,2.40
2023-04-19T11:31:47.535Z,2.27
2023-04-19T11:34:17.661Z,2.20
2023-04-19T11:36:49.528Z,2.40
2023-04-19T11:39:17.899Z,2.47
2023-04-19T11:41:47.402Z,2.13
2023-04-19T11:44:16.542Z,2.33
2023-04-19T11:46:45.567Z,2.53
2023-04-19T11:49:13.946Z,2.43
2023-04-19T11:51:46.781Z,2.30
2023-04-19T11:54:18.313Z,2.60
2023-04-19T11:57:03.705Z,2.57
2023-04-19T11:59:32.305Z,2.40
2023-04-19T12:02:07.309Z,2.57
2023-04-19T12:04:36.246Z,2.30
2023-04-19T12:07:06.783Z,2.63
2023-04-19T12:09:35.851Z,2.60
2023-04-19T12:12:04.539Z,2.50
2023-04-19T12:14:33.121Z,2.10
2023-04-19T12:17:22.719Z,2.20
2023-04-19T12:19:52.144Z,2.40
2023-04-19T12:22:23.817Z,1.83
2023-04-19T12:24:53.475Z,2.30
2023-04-19T12:27:22.178Z,2.13
2023-04-19T12:29:50.589Z,1.80
2023-04-19T12:32:19.059Z,1.90
2023-04-19T12:34:47.523Z,2.13
2023-04-19T12:37:15.885Z,1.93
2023-04-19T12:39:45.537Z,2.10
2023-04-19T12:42:14.096Z,2.20
2023-04-19T12:44:42.456Z,2.00
2023-04-19T12:47:10.881Z,2.10
2023-04-19T12:49:39.326Z,2.23
2023-04-19T12:52:08.424Z,2.30
2023-04-19T12:54:36.899Z,2.07
2023-04-19T12:57:06.987Z,2.30
2023-04-19T12:59:35.665Z,2.20
2023-04-19T13:02:04.318Z,2.03
2023-04-19T13:04:32.924Z,2.23
2023-04-19T13:07:01.560Z,1.90
2023-04-19T13:09:30.187Z,2.20
2023-04-19T13:11:58.878Z,2.40
2023-04-19T13:14:28.785Z,2.20
2023-04-19T13:16:57.309Z,2.27
2023-04-19T13:19:25.738Z,2.30
2023-04-19T13:21:54.096Z,2.50
2023-04-19T13:24:22.475Z,2.70
2023-04-19T13:26:50.916Z,2.50
2023-04-19T13:29:19.337Z,2.67
2023-04-19T13:31:49.518Z,2.17
2023-04-19T13:34:18.946Z,2.77
2023-04-19T13:36:47.521Z,2.90
2023-04-19T13:39:15.899Z,3.00
2023-04-19T13:41:44.289Z,2.80
2023-04-19T13:44:12.753Z,2.97
2023-04-19T13:46:41.137Z,2.70
2023-04-19T13:49:11.133Z,3.00
2023-04-19T13:51:49.588Z,2.97
2023-04-19T13:54:20.083Z,2.93
2023-04-19T13:56:51.351Z,2.78
2023-04-19T13:59:20.869Z,2.87
2023-04-19T14:01:49.268Z,3.30
2023-04-19T14:04:19.378Z,3.10
2023-04-19T14:06:48.238Z,2.93
2023-04-19T14:09:16.777Z,3.17
2023-04-19T14:11:45.305Z,3.10
2023-04-19T14:14:13.918Z,3.60
2023-04-19T14:16:42.555Z,2.88
2023-04-19T14:19:10.951Z,3.15
2023-04-19T14:21:41.174Z,3.35
2023-04-19T14:24:09.675Z,3.10
2023-04-19T14:26:38.084Z,3.50
2023-04-19T14:29:06.629Z,3.40
2023-04-19T14:31:35.075Z,2.87
2023-04-19T14:34:03.587Z,3.13
2023-04-19T14:36:31.919Z,3.20
2023-04-19T14:39:01.685Z,3.33
2023-04-19T14:41:30.323Z,2.93
2023-04-19T14:43:58.714Z,2.90
2023-04-19T14:46:27.449Z,2.90
2023-04-19T14:48:57.204Z,3.03
2023-04-19T14:51:25.547Z,3.30
2023-04-19T14:53:53.896Z,3.10
2023-04-19T14:56:23.614Z,3.22
2023-04-19T14:58:52.096Z,3.03
2023-04-19T15:01:23.245Z,3.07
2023-04-19T15:03:52.047Z,2.80
2023-04-19T15:06:20.761Z,3.20
2023-04-19T15:08:49.318Z,2.90
2023-04-19T15:11:17.702Z,2.90
2023-04-19T15:13:47.460Z,3.10
2023-04-19T15:16:15.913Z,2.73
2023-04-19T15:18:44.321Z,3.20
2023-04-19T15:21:13.014Z,2.80
2023-04-19T15:23:41.440Z,2.80
2023-04-19T15:26:09.881Z,2.97
2023-04-19T15:28:38.633Z,3.00
2023-04-19T15:31:08.816Z,2.80
2023-04-19T15:33:37.299Z,2.77
2023-04-19T15:36:05.851Z,2.70
2023-04-19T15:38:34.247Z,2.93
2023-04-19T15:41:02.933Z,2.83
2023-04-19T15:43:31.572Z,2.60
2023-04-19T15:46:00.321Z,2.50
2023-04-19T15:48:30.407Z,2.53
2023-04-19T15:50:59.121Z,2.47
2023-04-19T15:53:27.701Z,2.40
2023-04-19T15:55:56.272Z,2.30
2023-04-19T15:58:25.986Z,3.10
2023-04-19T16:00:54.352Z,2.80
2023-04-19T16:03:22.814Z,2.30
2023-04-19T16:05:53.188Z,2.93
2023-04-19T16:08:21.507Z,2.70
2023-04-19T16:10:50.112Z,2.43
2023-04-19T16:13:18.423Z,2.83
2023-04-19T16:15:47.353Z,2.97
2023-04-19T16:18:15.824Z,2.80
2023-04-19T16:20:44.563Z,2.70
2023-04-19T16:23:14.632Z,3.13
2023-04-19T16:25:43.212Z,2.97
2023-04-19T16:28:11.940Z,3.37
2023-04-19T16:30:40.407Z,3.23
2023-04-19T16:33:08.884Z,3.13
2023-04-19T16:35:37.335Z,3.87
2023-04-19T16:38:07.136Z,3.17
2023-04-19T16:40:39.624Z,3.67
2023-04-19T16:43:08.103Z,4.10
2023-04-19T16:45:36.654Z,3.67
2023-04-19T16:48:05.495Z,3.53
2023-04-19T16:50:34.151Z,3.80
2023-04-19T16:53:02.512Z,4.13
2023-04-19T16:55:30.868Z,3.67
2023-04-19T16:58:00.849Z,4.20
2023-04-19T17:00:29.233Z,4.20
2023-04-19T17:02:57.815Z,3.73
2023-04-19T17:05:26.379Z,4.20
2023-04-19T17:07:56.895Z,4.10
2023-04-19T17:10:25.672Z,4.20
2023-04-19T17:12:55.458Z,4.10
2023-04-19T17:15:26.078Z,3.77
2023-04-19T17:17:54.493Z,3.77
2023-04-19T17:20:22.840Z,4.30
2023-04-19T17:22:51.296Z,4.20
2023-04-19T17:25:21.756Z,4.40
2023-04-19T17:27:50.966Z,4.43
2023-04-19T17:30:19.461Z,4.67
2023-04-19T17:32:49.307Z,4.47
2023-04-19T17:35:18.022Z,4.53
2023-04-19T17:37:46.595Z,4.43
2023-04-19T17:40:14.952Z,4.40
2023-04-19T17:42:43.432Z,4.50
2023-04-19T17:45:12.206Z,4.40
2023-04-19T17:47:42.048Z,4.40
2023-04-19T17:50:13.050Z,4.17
2023-04-19T17:52:41.582Z,4.03
2023-04-19T17:55:10.380Z,4.37
2023-04-19T17:57:38.784Z,5.00
2023-04-19T18:00:10.218Z,4.70
2023-04-19T18:02:38.898Z,4.33
2023-04-19T18:05:07.963Z,4.87
2023-04-19T18:07:39.321Z,4.30
2023-04-19T18:10:08.528Z,4.67
2023-04-19T18:12:36.996Z,4.60
2023-04-19T18:15:06.941Z,5.13
2023-04-19T18:17:35.579Z,4.60
2023-04-19T18:20:06.026Z,5.03
2023-04-19T18:22:34.737Z,4.73
2023-04-19T18:25:04.824Z,4.90
2023-04-19T18:27:33.349Z,5.07
2023-04-19T18:30:03.922Z,5.20
2023-04-19T18:32:32.889Z,4.93
2023-04-19T18:35:04.027Z,5.43
2023-04-19T18:37:32.668Z,5.03
2023-04-19T18:40:01.079Z,4.70
2023-04-19T18:42:48.870Z,4.83
2023-04-19T18:45:17.295Z,4.70
2023-04-19T18:47:45.994Z,5.10
2023-04-19T18:50:18.704Z,5.37
2023-04-19T18:52:47.923Z,5.17
2023-04-19T18:55:16.743Z,4.93
2023-04-19T18:57:46.563Z,5.17
2023-04-19T19:00:15.601Z,5.20
2023-04-19T19:02:45.265Z,4.37
2023-04-19T19:05:15.855Z,4.33
2023-04-19T19:07:45.296Z,3.93
2023-04-19T19:10:20.915Z,4.27
2023-04-19T19:12:51.772Z,4.47
2023-04-19T19:15:21.482Z,4.07
2023-04-19T19:17:50.658Z,3.80
2023-04-19T19:20:19.863Z,4.23
2023-04-19T19:22:49.027Z,4.47
2023-04-19T19:25:17.479Z,3.90
2023-04-19T19:28:02.854Z,3.60
2023-04-19T19:30:42.029Z,3.80
2023-04-19T19:33:11.355Z,4.10
2023-04-19T19:35:43.098Z,4.00
2023-04-19T19:38:11.677Z,3.37
2023-04-19T19:41:17.711Z,3.50
2023-04-19T19:43:30.292Z,3.97
2023-04-19T19:46:00.215Z,3.50
2023-04-19T19:48:30.378Z,3.77
2023-04-19T19:53:32.385Z,3.63
2023-04-19T19:56:01.002Z,3.40
2023-04-19T19:58:48.236Z,3.93
2023-04-19T20:01:22.672Z,3.90
2023-04-19T20:03:51.954Z,3.13
2023-04-19T20:08:53.065Z,3.70
2023-04-19T20:11:21.726Z,3.80
2023-04-19T20:13:50.785Z,3.83
2023-04-19T20:16:21.222Z,3.60
2023-04-19T20:18:52.627Z,3.40
2023-04-19T20:21:21.166Z,3.90
2023-04-19T20:23:50.065Z,3.50
2023-04-19T20:26:19.316Z,3.80
2023-04-19T20:28:47.752Z,3.70
2023-04-19T20:31:17.340Z,3.27
2023-04-19T20:33:49.779Z,3.60
2023-04-19T20:36:18.128Z,3.90
2023-04-19T20:38:46.628Z,3.57
2023-04-19T20:41:15.148Z,3.70
2023-04-19T20:43:46.698Z,4.10
2023-04-19T20:46:16.772Z,3.50
2023-04-19T20:48:46.941Z,3.70
2023-04-19T20:51:17.667Z,3.70
2023-04-19T20:53:47.259Z,3.87
2023-04-19T20:56:16.299Z,3.40
2023-04-19T20:58:45.392Z,3.57
2023-04-19T21:01:17.163Z,3.63
2023-04-19T21:03:46.029Z,4.00
2023-04-19T21:06:14.598Z,4.00
2023-04-19T21:08:44.358Z,3.70
2023-04-19T21:11:12.655Z,4.10
2023-04-19T21:13:41.874Z,3.53
2023-04-19T21:16:10.884Z,3.73
2023-04-19T21:18:39.367Z,3.90
2023-04-19T21:21:07.853Z,3.53
2023-04-19T21:23:36.597Z,3.60
2023-04-19T21:26:06.592Z,3.40
2023-04-19T21:28:35.878Z,3.50
2023-04-19T21:31:04.250Z,3.93
2023-04-19T21:33:32.881Z,3.63
2023-04-19T21:36:01.276Z,3.60
2023-04-19T21:38:29.665Z,3.60
2023-04-19T21:40:58.124Z,3.30
2023-04-19T21:43:28.123Z,3.33
2023-04-19T21:45:56.562Z,3.50
2023-04-19T21:48:25.198Z,3.53
2023-04-19T21:50:53.613Z,3.50
2023-04-19T21:53:22.409Z,3.63
2023-04-19T21:55:50.831Z,3.77
2023-04-19T21:58:19.416Z,3.53
2023-04-19T22:00:49.808Z,3.43
2023-04-19T22:03:18.407Z,2.83
2023-04-19T22:05:47.172Z,3.30
2023-04-19T22:08:18.114Z,3.30
2023-04-19T22:10:46.703Z,3.40
2023-04-19T22:13:17.577Z,4.17
2023-04-19T22:15:46.085Z,3.40
2023-04-19T22:18:16.029Z,3.33
2023-04-19T22:20:44.587Z,3.60
2023-04-19T22:23:13.025Z,3.47
2023-04-19T22:25:41.486Z,3.70
2023-04-19T22:28:09.878Z,3.20
2023-04-19T22:30:38.361Z,3.30
2023-04-19T22:33:07.039Z,3.53
2023-04-19T22:35:36.968Z,3.40
2023-04-19T22:38:05.426Z,3.83
2023-04-19T22:40:33.844Z,3.70
2023-04-19T22:43:02.488Z,3.27
2023-04-19T22:45:30.942Z,3.30
2023-04-19T22:47:59.497Z,3.03
2023-04-19T22:50:28.711Z,3.37
2023-04-19T22:52:58.842Z,3.60
2023-04-19T22:55:27.325Z,3.13
2023-04-19T22:57:55.744Z,3.20
2023-04-19T23:00:24.627Z,3.33
2023-04-19T23:02:53.213Z,3.63
2023-04-19T23:05:21.663Z,3.30
2023-04-19T23:07:50.332Z,3.10
2023-04-19T23:10:20.071Z,3.10
2023-04-19T23:12:49.104Z,3.17
2023-04-19T23:15:18.674Z,3.30
2023-04-19T23:17:47.239Z,2.97
2023-04-19T23:20:15.957Z,3.10
2023-04-19T23:22:44.332Z,3.13
2023-04-19T23:25:12.792Z,2.90
2023-04-19T23:27:42.550Z,2.97
2023-04-19T23:30:11.226Z,3.00
2023-04-19T23:32:39.688Z,3.07
2023-04-19T23:35:08.385Z,2.93
2023-04-19T23:37:36.738Z,3.03
2023-04-19T23:40:05.779Z,3.13
2023-04-19T23:42:34.147Z,3.27
2023-04-19T23:45:04.055Z,3.03
2023-04-19T23:47:32.439Z,2.90
2023-04-19T23:50:00.882Z,3.27
2023-04-19T23:52:29.367Z,2.90
2023-04-19T23:54:57.834Z,2.77
2023-04-19T23:57:26.116Z,2.60
2023-04-19T23:59:54.424Z,2.83
